sensor_id;sensor_type;location;lat;lon;timestamp;P1;durP1;ratioP1;P2;durP2;ratioP2
16031;SDS011;8120;48.308;8.914;2022-12-16T00:01:13;57.27;;;23.50;;
16031;SDS011;8120;48.308;8.914;2022-12-16T00:03:45;51.17;;;24.10;;
16031;SDS011;8120;48.308;8.914;2022-12-16T00:06:17;53.13;;;24.83;;
16031;SDS011;8120;48.308;8.914;2022-12-16T00:08:47;46.40;;;23.03;;
16031;SDS011;8120;48.308;8.914;2022-12-16T00:11:17;54.37;;;27.47;;
16031;SDS011;8120;48.308;8.914;2022-12-16T00:13:45;49.97;;;25.60;;
16031;SDS011;8120;48.308;8.914;2022-12-16T00:16:14;49.80;;;25.37;;
16031;SDS011;8120;48.308;8.914;2022-12-16T00:18:43;57.63;;;26.27;;
16031;SDS011;8120;48.308;8.914;2022-12-16T00:21:12;54.37;;;26.10;;
16031;SDS011;8120;48.308;8.914;2022-12-16T00:23:40;51.13;;;23.97;;
16031;SDS011;8120;48.308;8.914;2022-12-16T00:26:10;37.87;;;20.40;;
16031;SDS011;8120;48.308;8.914;2022-12-16T00:28:39;51.33;;;22.47;;
16031;SDS011;8120;48.308;8.914;2022-12-16T00:31:08;46.93;;;22.33;;
16031;SDS011;8120;48.308;8.914;2022-12-16T00:33:37;51.33;;;23.43;;
16031;SDS011;8120;48.308;8.914;2022-12-16T00:36:05;42.67;;;19.47;;
16031;SDS011;8120;48.308;8.914;2022-12-16T00:38:33;48.43;;;19.47;;
16031;SDS011;8120;48.308;8.914;2022-12-16T00:41:01;51.83;;;22.43;;
16031;SDS011;8120;48.308;8.914;2022-12-16T00:43:30;47.90;;;23.30;;
16031;SDS011;8120;48.308;8.914;2022-12-16T00:45:59;45.63;;;25.10;;
16031;SDS011;8120;48.308;8.914;2022-12-16T00:48:27;58.80;;;25.20;;
16031;SDS011;8120;48.308;8.914;2022-12-16T00:50:54;46.37;;;24.10;;
16031;SDS011;8120;48.308;8.914;2022-12-16T00:53:23;31.20;;;15.13;;
16031;SDS011;8120;48.308;8.914;2022-12-16T00:55:51;45.57;;;23.87;;
16031;SDS011;8120;48.308;8.914;2022-12-16T00:58:27;46.70;;;23.33;;
16031;SDS011;8120;48.308;8.914;2022-12-16T01:00:56;45.27;;;23.40;;
16031;SDS011;8120;48.308;8.914;2022-12-16T01:03:24;50.23;;;24.80;;
16031;SDS011;8120;48.308;8.914;2022-12-16T01:05:52;44.40;;;22.77;;
16031;SDS011;8120;48.308;8.914;2022-12-16T01:08:20;47.57;;;26.57;;
16031;SDS011;8120;48.308;8.914;2022-12-16T01:10:49;47.13;;;24.80;;
16031;SDS011;8120;48.308;8.914;2022-12-16T01:13:17;54.80;;;27.97;;
16031;SDS011;8120;48.308;8.914;2022-12-16T01:15:45;46.23;;;23.97;;
16031;SDS011;8120;48.308;8.914;2022-12-16T01:18:15;41.57;;;21.00;;
16031;SDS011;8120;48.308;8.914;2022-12-16T01:20:43;44.20;;;25.10;;
16031;SDS011;8120;48.308;8.914;2022-12-16T01:23:11;52.23;;;26.70;;
16031;SDS011;8120;48.308;8.914;2022-12-16T01:25:39;46.53;;;25.07;;
16031;SDS011;8120;48.308;8.914;2022-12-16T01:28:06;52.73;;;26.30;;
16031;SDS011;8120;48.308;8.914;2022-12-16T01:30:34;46.77;;;26.40;;
16031;SDS011;8120;48.308;8.914;2022-12-16T01:33:02;54.03;;;29.73;;
16031;SDS011;8120;48.308;8.914;2022-12-16T01:35:32;52.77;;;29.20;;
16031;SDS011;8120;48.308;8.914;2022-12-16T01:38:19;54.43;;;28.17;;
16031;SDS011;8120;48.308;8.914;2022-12-16T01:40:47;46.87;;;27.83;;
16031;SDS011;8120;48.308;8.914;2022-12-16T01:43:17;54.50;;;29.90;;
16031;SDS011;8120;48.308;8.914;2022-12-16T01:45:47;49.97;;;27.83;;
16031;SDS011;8120;48.308;8.914;2022-12-16T01:48:18;46.70;;;27.07;;
16031;SDS011;8120;48.308;8.914;2022-12-16T01:50:49;49.97;;;26.97;;
16031;SDS011;8120;48.308;8.914;2022-12-16T01:53:24;50.47;;;26.70;;
16031;SDS011;8120;48.308;8.914;2022-12-16T01:55:52;49.93;;;26.47;;
16031;SDS011;8120;48.308;8.914;2022-12-16T01:58:23;50.17;;;27.00;;
16031;SDS011;8120;48.308;8.914;2022-12-16T02:00:54;50.13;;;27.23;;
16031;SDS011;8120;48.308;8.914;2022-12-16T02:03:22;48.10;;;27.53;;
16031;SDS011;8120;48.308;8.914;2022-12-16T02:05:51;48.37;;;28.30;;
16031;SDS011;8120;48.308;8.914;2022-12-16T02:08:20;55.07;;;31.50;;
16031;SDS011;8120;48.308;8.914;2022-12-16T02:11:02;46.13;;;27.53;;
16031;SDS011;8120;48.308;8.914;2022-12-16T02:13:47;48.83;;;27.97;;
16031;SDS011;8120;48.308;8.914;2022-12-16T02:16:31;46.73;;;25.77;;
16031;SDS011;8120;48.308;8.914;2022-12-16T02:19:07;49.27;;;26.90;;
16031;SDS011;8120;48.308;8.914;2022-12-16T02:21:48;55.23;;;27.97;;
16031;SDS011;8120;48.308;8.914;2022-12-16T02:27:38;56.53;;;28.70;;
16031;SDS011;8120;48.308;8.914;2022-12-16T02:36:15;54.63;;;29.23;;
16031;SDS011;8120;48.308;8.914;2022-12-16T02:38:53;51.90;;;28.83;;
16031;SDS011;8120;48.308;8.914;2022-12-16T02:41:26;51.43;;;28.57;;
16031;SDS011;8120;48.308;8.914;2022-12-16T02:44:01;53.07;;;29.13;;
16031;SDS011;8120;48.308;8.914;2022-12-16T02:46:37;52.17;;;26.97;;
16031;SDS011;8120;48.308;8.914;2022-12-16T02:49:07;51.03;;;27.93;;
16031;SDS011;8120;48.308;8.914;2022-12-16T02:51:56;53.63;;;26.63;;
16031;SDS011;8120;48.308;8.914;2022-12-16T02:54:25;47.80;;;24.43;;
16031;SDS011;8120;48.308;8.914;2022-12-16T02:57:01;44.00;;;22.70;;
16031;SDS011;8120;48.308;8.914;2022-12-16T02:59:40;44.03;;;24.20;;
16031;SDS011;8120;48.308;8.914;2022-12-16T03:02:18;41.80;;;24.47;;
16031;SDS011;8120;48.308;8.914;2022-12-16T03:04:53;49.53;;;25.30;;
16031;SDS011;8120;48.308;8.914;2022-12-16T03:07:27;46.30;;;26.17;;
16031;SDS011;8120;48.308;8.914;2022-12-16T03:09:59;49.43;;;23.90;;
16031;SDS011;8120;48.308;8.914;2022-12-16T03:12:32;44.97;;;26.83;;
16031;SDS011;8120;48.308;8.914;2022-12-16T03:15:01;44.93;;;24.40;;
16031;SDS011;8120;48.308;8.914;2022-12-16T03:17:32;48.33;;;27.13;;
16031;SDS011;8120;48.308;8.914;2022-12-16T03:20:04;45.30;;;22.97;;
16031;SDS011;8120;48.308;8.914;2022-12-16T03:22:36;44.03;;;24.57;;
16031;SDS011;8120;48.308;8.914;2022-12-16T03:25:08;47.13;;;24.10;;
16031;SDS011;8120;48.308;8.914;2022-12-16T03:27:38;44.77;;;24.77;;
16031;SDS011;8120;48.308;8.914;2022-12-16T03:30:12;48.73;;;23.30;;
16031;SDS011;8120;48.308;8.914;2022-12-16T03:32:45;44.07;;;22.90;;
16031;SDS011;8120;48.308;8.914;2022-12-16T03:35:19;51.00;;;25.17;;
16031;SDS011;8120;48.308;8.914;2022-12-16T03:37:54;47.13;;;23.83;;
16031;SDS011;8120;48.308;8.914;2022-12-16T03:40:24;46.50;;;24.27;;
16031;SDS011;8120;48.308;8.914;2022-12-16T03:42:54;47.23;;;24.10;;
16031;SDS011;8120;48.308;8.914;2022-12-16T03:45:24;42.27;;;24.70;;
16031;SDS011;8120;48.308;8.914;2022-12-16T03:47:57;43.00;;;24.10;;
16031;SDS011;8120;48.308;8.914;2022-12-16T03:50:27;41.00;;;23.20;;
16031;SDS011;8120;48.308;8.914;2022-12-16T03:52:57;42.83;;;24.57;;
16031;SDS011;8120;48.308;8.914;2022-12-16T03:55:25;51.47;;;25.60;;
16031;SDS011;8120;48.308;8.914;2022-12-16T03:57:54;46.80;;;25.03;;
16031;SDS011;8120;48.308;8.914;2022-12-16T04:00:22;40.57;;;23.67;;
16031;SDS011;8120;48.308;8.914;2022-12-16T04:02:51;48.63;;;24.03;;
16031;SDS011;8120;48.308;8.914;2022-12-16T04:05:20;49.70;;;25.53;;
16031;SDS011;8120;48.308;8.914;2022-12-16T04:07:48;49.73;;;24.83;;
16031;SDS011;8120;48.308;8.914;2022-12-16T04:10:16;44.17;;;22.77;;
16031;SDS011;8120;48.308;8.914;2022-12-16T04:13:06;44.60;;;23.53;;
16031;SDS011;8120;48.308;8.914;2022-12-16T04:15:52;43.90;;;23.80;;
16031;SDS011;8120;48.308;8.914;2022-12-16T04:18:38;46.07;;;25.13;;
16031;SDS011;8120;48.308;8.914;2022-12-16T04:21:26;46.17;;;23.00;;
16031;SDS011;8120;48.308;8.914;2022-12-16T04:24:12;43.90;;;24.80;;
16031;SDS011;8120;48.308;8.914;2022-12-16T04:26:49;44.47;;;23.47;;
16031;SDS011;8120;48.308;8.914;2022-12-16T04:29:40;37.33;;;22.70;;
16031;SDS011;8120;48.308;8.914;2022-12-16T04:32:22;44.17;;;23.97;;
16031;SDS011;8120;48.308;8.914;2022-12-16T04:34:50;41.53;;;24.40;;
16031;SDS011;8120;48.308;8.914;2022-12-16T04:37:19;45.87;;;25.10;;
16031;SDS011;8120;48.308;8.914;2022-12-16T04:40:04;40.93;;;24.77;;
16031;SDS011;8120;48.308;8.914;2022-12-16T04:42:50;41.40;;;24.43;;
16031;SDS011;8120;48.308;8.914;2022-12-16T04:45:37;36.57;;;23.10;;
16031;SDS011;8120;48.308;8.914;2022-12-16T04:48:22;43.60;;;24.30;;
16031;SDS011;8120;48.308;8.914;2022-12-16T04:51:07;46.63;;;26.37;;
16031;SDS011;8120;48.308;8.914;2022-12-16T04:53:54;44.30;;;25.37;;
16031;SDS011;8120;48.308;8.914;2022-12-16T04:56:40;40.13;;;24.50;;
16031;SDS011;8120;48.308;8.914;2022-12-16T04:59:25;46.37;;;24.20;;
16031;SDS011;8120;48.308;8.914;2022-12-16T05:02:11;39.30;;;24.03;;
16031;SDS011;8120;48.308;8.914;2022-12-16T05:04:56;44.43;;;24.03;;
16031;SDS011;8120;48.308;8.914;2022-12-16T05:07:42;42.90;;;22.73;;
16031;SDS011;8120;48.308;8.914;2022-12-16T05:10:28;40.87;;;22.80;;
16031;SDS011;8120;48.308;8.914;2022-12-16T05:13:14;37.83;;;21.87;;
16031;SDS011;8120;48.308;8.914;2022-12-16T05:16:00;36.67;;;23.20;;
16031;SDS011;8120;48.308;8.914;2022-12-16T05:18:45;42.43;;;23.63;;
16031;SDS011;8120;48.308;8.914;2022-12-16T05:21:31;39.67;;;22.60;;
16031;SDS011;8120;48.308;8.914;2022-12-16T05:24:16;36.73;;;21.53;;
16031;SDS011;8120;48.308;8.914;2022-12-16T05:27:03;43.50;;;23.20;;
16031;SDS011;8120;48.308;8.914;2022-12-16T05:29:49;37.67;;;21.50;;
16031;SDS011;8120;48.308;8.914;2022-12-16T05:32:34;37.07;;;23.03;;
16031;SDS011;8120;48.308;8.914;2022-12-16T05:35:20;41.87;;;22.90;;
16031;SDS011;8120;48.308;8.914;2022-12-16T05:38:05;38.43;;;22.27;;
16031;SDS011;8120;48.308;8.914;2022-12-16T05:40:56;40.43;;;23.93;;
16031;SDS011;8120;48.308;8.914;2022-12-16T05:43:43;36.70;;;21.73;;
16031;SDS011;8120;48.308;8.914;2022-12-16T05:46:29;40.43;;;22.83;;
16031;SDS011;8120;48.308;8.914;2022-12-16T05:49:14;40.87;;;24.37;;
16031;SDS011;8120;48.308;8.914;2022-12-16T05:52:00;42.23;;;24.43;;
16031;SDS011;8120;48.308;8.914;2022-12-16T05:54:45;41.90;;;24.03;;
16031;SDS011;8120;48.308;8.914;2022-12-16T05:57:33;33.10;;;20.47;;
16031;SDS011;8120;48.308;8.914;2022-12-16T06:00:20;38.87;;;24.07;;
16031;SDS011;8120;48.308;8.914;2022-12-16T06:03:05;36.23;;;21.33;;
16031;SDS011;8120;48.308;8.914;2022-12-16T06:05:51;40.03;;;24.47;;
16031;SDS011;8120;48.308;8.914;2022-12-16T06:08:37;39.77;;;21.07;;
16031;SDS011;8120;48.308;8.914;2022-12-16T06:11:22;37.27;;;22.23;;
16031;SDS011;8120;48.308;8.914;2022-12-16T06:14:07;34.53;;;20.93;;
16031;SDS011;8120;48.308;8.914;2022-12-16T06:16:54;40.27;;;23.53;;
16031;SDS011;8120;48.308;8.914;2022-12-16T06:19:40;35.77;;;21.20;;
16031;SDS011;8120;48.308;8.914;2022-12-16T06:22:25;32.70;;;21.33;;
16031;SDS011;8120;48.308;8.914;2022-12-16T06:25:11;35.33;;;20.27;;
16031;SDS011;8120;48.308;8.914;2022-12-16T06:27:56;37.13;;;20.13;;
16031;SDS011;8120;48.308;8.914;2022-12-16T06:30:41;30.53;;;19.37;;
16031;SDS011;8120;48.308;8.914;2022-12-16T06:33:28;31.93;;;19.47;;
16031;SDS011;8120;48.308;8.914;2022-12-16T06:36:20;36.20;;;21.80;;
16031;SDS011;8120;48.308;8.914;2022-12-16T06:39:05;30.67;;;19.53;;
16031;SDS011;8120;48.308;8.914;2022-12-16T06:41:51;41.83;;;24.33;;
16031;SDS011;8120;48.308;8.914;2022-12-16T06:44:36;37.87;;;22.27;;
16031;SDS011;8120;48.308;8.914;2022-12-16T06:47:21;33.40;;;21.27;;
16031;SDS011;8120;48.308;8.914;2022-12-16T06:50:08;40.60;;;21.70;;
16031;SDS011;8120;48.308;8.914;2022-12-16T06:52:54;37.83;;;21.23;;
16031;SDS011;8120;48.308;8.914;2022-12-16T06:55:39;41.57;;;25.07;;
16031;SDS011;8120;48.308;8.914;2022-12-16T06:58:25;36.20;;;20.80;;
16031;SDS011;8120;48.308;8.914;2022-12-16T07:01:10;37.83;;;21.23;;
16031;SDS011;8120;48.308;8.914;2022-12-16T07:03:56;33.87;;;19.60;;
16031;SDS011;8120;48.308;8.914;2022-12-16T07:06:42;30.90;;;18.70;;
16031;SDS011;8120;48.308;8.914;2022-12-16T07:09:28;32.23;;;19.27;;
16031;SDS011;8120;48.308;8.914;2022-12-16T07:12:13;31.60;;;18.47;;
16031;SDS011;8120;48.308;8.914;2022-12-16T07:14:58;31.17;;;19.27;;
16031;SDS011;8120;48.308;8.914;2022-12-16T07:17:44;30.20;;;18.37;;
16031;SDS011;8120;48.308;8.914;2022-12-16T07:20:29;37.37;;;20.77;;
16031;SDS011;8120;48.308;8.914;2022-12-16T07:23:17;33.27;;;20.20;;
16031;SDS011;8120;48.308;8.914;2022-12-16T07:26:02;35.80;;;18.67;;
16031;SDS011;8120;48.308;8.914;2022-12-16T07:28:47;32.17;;;18.83;;
16031;SDS011;8120;48.308;8.914;2022-12-16T07:31:33;40.27;;;21.77;;
16031;SDS011;8120;48.308;8.914;2022-12-16T07:34:18;42.47;;;23.27;;
16031;SDS011;8120;48.308;8.914;2022-12-16T07:37:09;35.00;;;19.67;;
16031;SDS011;8120;48.308;8.914;2022-12-16T07:39:56;65.33;;;31.00;;
16031;SDS011;8120;48.308;8.914;2022-12-16T07:42:44;42.03;;;20.33;;
16031;SDS011;8120;48.308;8.914;2022-12-16T07:45:30;52.03;;;25.03;;
16031;SDS011;8120;48.308;8.914;2022-12-16T07:48:16;45.40;;;24.27;;
16031;SDS011;8120;48.308;8.914;2022-12-16T07:51:01;35.20;;;20.10;;
16031;SDS011;8120;48.308;8.914;2022-12-16T07:53:46;29.57;;;18.17;;
16031;SDS011;8120;48.308;8.914;2022-12-16T07:56:33;33.93;;;17.93;;
16031;SDS011;8120;48.308;8.914;2022-12-16T07:59:19;47.90;;;26.73;;
16031;SDS011;8120;48.308;8.914;2022-12-16T08:02:04;30.17;;;16.57;;
16031;SDS011;8120;48.308;8.914;2022-12-16T08:04:52;32.67;;;17.57;;
16031;SDS011;8120;48.308;8.914;2022-12-16T08:07:38;25.83;;;14.40;;
16031;SDS011;8120;48.308;8.914;2022-12-16T08:10:24;21.30;;;12.50;;
16031;SDS011;8120;48.308;8.914;2022-12-16T08:13:10;27.70;;;16.43;;
16031;SDS011;8120;48.308;8.914;2022-12-16T08:15:55;27.57;;;15.53;;
16031;SDS011;8120;48.308;8.914;2022-12-16T08:18:55;27.83;;;15.33;;
16031;SDS011;8120;48.308;8.914;2022-12-16T08:21:41;24.60;;;13.87;;
16031;SDS011;8120;48.308;8.914;2022-12-16T08:24:26;25.67;;;16.50;;
16031;SDS011;8120;48.308;8.914;2022-12-16T08:27:18;26.20;;;13.27;;
16031;SDS011;8120;48.308;8.914;2022-12-16T08:30:06;22.20;;;14.47;;
16031;SDS011;8120;48.308;8.914;2022-12-16T08:32:52;21.57;;;13.43;;
16031;SDS011;8120;48.308;8.914;2022-12-16T08:35:49;23.00;;;14.23;;
16031;SDS011;8120;48.308;8.914;2022-12-16T08:38:34;24.53;;;13.97;;
16031;SDS011;8120;48.308;8.914;2022-12-16T08:41:20;25.27;;;13.73;;
16031;SDS011;8120;48.308;8.914;2022-12-16T08:44:06;22.03;;;12.27;;
16031;SDS011;8120;48.308;8.914;2022-12-16T08:46:53;23.03;;;14.13;;
16031;SDS011;8120;48.308;8.914;2022-12-16T08:49:38;20.37;;;13.63;;
16031;SDS011;8120;48.308;8.914;2022-12-16T08:52:27;25.00;;;14.93;;
16031;SDS011;8120;48.308;8.914;2022-12-16T08:55:12;28.53;;;15.23;;
16031;SDS011;8120;48.308;8.914;2022-12-16T08:57:58;28.93;;;15.63;;
16031;SDS011;8120;48.308;8.914;2022-12-16T09:00:43;21.87;;;13.90;;
16031;SDS011;8120;48.308;8.914;2022-12-16T09:03:36;24.57;;;14.70;;
16031;SDS011;8120;48.308;8.914;2022-12-16T09:06:21;21.97;;;13.90;;
16031;SDS011;8120;48.308;8.914;2022-12-16T09:09:07;35.30;;;18.73;;
16031;SDS011;8120;48.308;8.914;2022-12-16T09:11:52;23.60;;;13.27;;
16031;SDS011;8120;48.308;8.914;2022-12-16T09:14:38;20.97;;;13.07;;
16031;SDS011;8120;48.308;8.914;2022-12-16T09:17:23;21.63;;;14.27;;
16031;SDS011;8120;48.308;8.914;2022-12-16T09:20:19;24.37;;;14.47;;
16031;SDS011;8120;48.308;8.914;2022-12-16T09:23:04;22.63;;;12.53;;
16031;SDS011;8120;48.308;8.914;2022-12-16T09:25:50;23.00;;;14.30;;
16031;SDS011;8120;48.308;8.914;2022-12-16T09:28:35;24.07;;;12.57;;
16031;SDS011;8120;48.308;8.914;2022-12-16T09:31:21;21.63;;;12.10;;
16031;SDS011;8120;48.308;8.914;2022-12-16T09:34:06;24.43;;;12.97;;
16031;SDS011;8120;48.308;8.914;2022-12-16T09:36:53;20.07;;;11.93;;
16031;SDS011;8120;48.308;8.914;2022-12-16T09:39:38;22.10;;;12.43;;
16031;SDS011;8120;48.308;8.914;2022-12-16T09:42:24;18.23;;;11.33;;
16031;SDS011;8120;48.308;8.914;2022-12-16T09:45:22;17.13;;;10.77;;
16031;SDS011;8120;48.308;8.914;2022-12-16T09:48:11;20.50;;;10.77;;
16031;SDS011;8120;48.308;8.914;2022-12-16T09:51:03;18.10;;;11.97;;
16031;SDS011;8120;48.308;8.914;2022-12-16T09:53:51;12.63;;;8.77;;
16031;SDS011;8120;48.308;8.914;2022-12-16T09:56:38;17.03;;;10.27;;
16031;SDS011;8120;48.308;8.914;2022-12-16T09:59:24;17.13;;;11.00;;
16031;SDS011;8120;48.308;8.914;2022-12-16T10:02:12;14.10;;;8.73;;
16031;SDS011;8120;48.308;8.914;2022-12-16T10:05:00;14.77;;;8.87;;
16031;SDS011;8120;48.308;8.914;2022-12-16T10:07:47;21.33;;;10.03;;
16031;SDS011;8120;48.308;8.914;2022-12-16T10:10:47;14.30;;;9.87;;
16031;SDS011;8120;48.308;8.914;2022-12-16T10:13:41;19.40;;;11.33;;
16031;SDS011;8120;48.308;8.914;2022-12-16T10:16:34;18.73;;;11.00;;
16031;SDS011;8120;48.308;8.914;2022-12-16T10:19:27;15.80;;;10.03;;
16031;SDS011;8120;48.308;8.914;2022-12-16T10:22:24;14.23;;;9.40;;
16031;SDS011;8120;48.308;8.914;2022-12-16T10:25:19;17.53;;;9.23;;
16031;SDS011;8120;48.308;8.914;2022-12-16T10:28:12;17.07;;;10.57;;
16031;SDS011;8120;48.308;8.914;2022-12-16T10:31:01;16.27;;;8.67;;
16031;SDS011;8120;48.308;8.914;2022-12-16T10:34:04;15.63;;;8.67;;
16031;SDS011;8120;48.308;8.914;2022-12-16T10:36:55;14.13;;;8.30;;
16031;SDS011;8120;48.308;8.914;2022-12-16T10:39:49;15.37;;;8.97;;
16031;SDS011;8120;48.308;8.914;2022-12-16T10:42:39;14.80;;;8.80;;
16031;SDS011;8120;48.308;8.914;2022-12-16T10:45:32;15.83;;;9.53;;
16031;SDS011;8120;48.308;8.914;2022-12-16T10:48:22;13.57;;;9.00;;
16031;SDS011;8120;48.308;8.914;2022-12-16T10:51:22;16.23;;;10.23;;
16031;SDS011;8120;48.308;8.914;2022-12-16T10:54:13;15.77;;;9.90;;
16031;SDS011;8120;48.308;8.914;2022-12-16T10:57:19;17.37;;;9.87;;
16031;SDS011;8120;48.308;8.914;2022-12-16T11:00:12;12.37;;;8.17;;
16031;SDS011;8120;48.308;8.914;2022-12-16T11:03:17;12.83;;;8.03;;
16031;SDS011;8120;48.308;8.914;2022-12-16T11:06:04;17.27;;;8.77;;
16031;SDS011;8120;48.308;8.914;2022-12-16T11:08:50;14.73;;;10.03;;
16031;SDS011;8120;48.308;8.914;2022-12-16T11:11:36;14.93;;;9.60;;
16031;SDS011;8120;48.308;8.914;2022-12-16T11:14:23;13.70;;;8.43;;
16031;SDS011;8120;48.308;8.914;2022-12-16T11:17:29;18.40;;;9.67;;
16031;SDS011;8120;48.308;8.914;2022-12-16T11:20:16;14.43;;;8.60;;
16031;SDS011;8120;48.308;8.914;2022-12-16T11:23:14;15.10;;;8.97;;
16031;SDS011;8120;48.308;8.914;2022-12-16T11:26:05;14.23;;;7.93;;
16031;SDS011;8120;48.308;8.914;2022-12-16T11:29:08;13.73;;;7.03;;
16031;SDS011;8120;48.308;8.914;2022-12-16T11:31:57;12.87;;;7.73;;
16031;SDS011;8120;48.308;8.914;2022-12-16T11:34:48;11.57;;;7.20;;
16031;SDS011;8120;48.308;8.914;2022-12-16T11:37:38;15.27;;;7.10;;
16031;SDS011;8120;48.308;8.914;2022-12-16T11:40:25;10.33;;;6.77;;
16031;SDS011;8120;48.308;8.914;2022-12-16T11:43:14;9.80;;;5.97;;
16031;SDS011;8120;48.308;8.914;2022-12-16T11:46:02;11.07;;;8.20;;
16031;SDS011;8120;48.308;8.914;2022-12-16T11:48:53;12.70;;;7.23;;
16031;SDS011;8120;48.308;8.914;2022-12-16T11:51:51;12.07;;;7.80;;
16031;SDS011;8120;48.308;8.914;2022-12-16T11:55:03;14.63;;;8.07;;
16031;SDS011;8120;48.308;8.914;2022-12-16T11:58:17;12.60;;;8.47;;
16031;SDS011;8120;48.308;8.914;2022-12-16T12:01:09;15.17;;;7.60;;
16031;SDS011;8120;48.308;8.914;2022-12-16T12:03:57;11.83;;;7.77;;
16031;SDS011;8120;48.308;8.914;2022-12-16T12:06:49;16.53;;;8.60;;
16031;SDS011;8120;48.308;8.914;2022-12-16T12:09:46;12.73;;;8.30;;
16031;SDS011;8120;48.308;8.914;2022-12-16T12:12:39;18.60;;;9.37;;
16031;SDS011;8120;48.308;8.914;2022-12-16T12:15:32;14.70;;;9.33;;
16031;SDS011;8120;48.308;8.914;2022-12-16T12:18:27;16.03;;;9.03;;
16031;SDS011;8120;48.308;8.914;2022-12-16T12:21:22;13.40;;;7.63;;
16031;SDS011;8120;48.308;8.914;2022-12-16T12:24:22;15.10;;;9.13;;
16031;SDS011;8120;48.308;8.914;2022-12-16T12:27:24;13.93;;;8.07;;
16031;SDS011;8120;48.308;8.914;2022-12-16T12:30:17;15.10;;;8.20;;
16031;SDS011;8120;48.308;8.914;2022-12-16T12:33:10;14.03;;;9.33;;
16031;SDS011;8120;48.308;8.914;2022-12-16T12:36:09;15.03;;;10.30;;
16031;SDS011;8120;48.308;8.914;2022-12-16T12:39:07;16.47;;;8.13;;
16031;SDS011;8120;48.308;8.914;2022-12-16T12:42:16;15.57;;;9.17;;
16031;SDS011;8120;48.308;8.914;2022-12-16T12:45:22;14.17;;;9.30;;
16031;SDS011;8120;48.308;8.914;2022-12-16T12:48:23;12.43;;;8.63;;
16031;SDS011;8120;48.308;8.914;2022-12-16T12:51:12;15.63;;;7.97;;
16031;SDS011;8120;48.308;8.914;2022-12-16T12:54:06;11.17;;;6.60;;
16031;SDS011;8120;48.308;8.914;2022-12-16T12:56:58;9.67;;;6.07;;
16031;SDS011;8120;48.308;8.914;2022-12-16T12:59:46;10.70;;;6.43;;
16031;SDS011;8120;48.308;8.914;2022-12-16T13:02:40;9.40;;;6.50;;
16031;SDS011;8120;48.308;8.914;2022-12-16T13:05:31;8.83;;;5.53;;
16031;SDS011;8120;48.308;8.914;2022-12-16T13:08:31;9.63;;;5.73;;
16031;SDS011;8120;48.308;8.914;2022-12-16T13:11:27;10.20;;;4.60;;
16031;SDS011;8120;48.308;8.914;2022-12-16T13:21:03;8.93;;;5.83;;
16031;SDS011;8120;48.308;8.914;2022-12-16T13:24:26;9.97;;;5.70;;
16031;SDS011;8120;48.308;8.914;2022-12-16T13:27:19;9.97;;;6.13;;
16031;SDS011;8120;48.308;8.914;2022-12-16T13:30:16;9.23;;;6.53;;
16031;SDS011;8120;48.308;8.914;2022-12-16T13:33:27;10.50;;;5.93;;
16031;SDS011;8120;48.308;8.914;2022-12-16T13:36:14;9.97;;;6.17;;
16031;SDS011;8120;48.308;8.914;2022-12-16T13:39:05;11.90;;;6.30;;
16031;SDS011;8120;48.308;8.914;2022-12-16T13:42:04;16.30;;;9.23;;
16031;SDS011;8120;48.308;8.914;2022-12-16T13:44:54;12.50;;;7.77;;
16031;SDS011;8120;48.308;8.914;2022-12-16T13:47:57;11.73;;;6.30;;
16031;SDS011;8120;48.308;8.914;2022-12-16T13:50:45;12.67;;;7.40;;
16031;SDS011;8120;48.308;8.914;2022-12-16T13:53:32;11.93;;;7.43;;
16031;SDS011;8120;48.308;8.914;2022-12-16T13:56:22;10.97;;;7.03;;
16031;SDS011;8120;48.308;8.914;2022-12-16T13:59:12;11.63;;;6.73;;
16031;SDS011;8120;48.308;8.914;2022-12-16T14:02:02;14.93;;;8.03;;
16031;SDS011;8120;48.308;8.914;2022-12-16T14:05:01;12.87;;;7.37;;
16031;SDS011;8120;48.308;8.914;2022-12-16T14:07:49;11.90;;;7.57;;
16031;SDS011;8120;48.308;8.914;2022-12-16T14:10:37;14.97;;;8.33;;
16031;SDS011;8120;48.308;8.914;2022-12-16T14:13:25;15.20;;;7.60;;
16031;SDS011;8120;48.308;8.914;2022-12-16T14:16:17;14.70;;;8.63;;
16031;SDS011;8120;48.308;8.914;2022-12-16T14:19:19;13.67;;;7.93;;
16031;SDS011;8120;48.308;8.914;2022-12-16T14:22:16;13.03;;;7.90;;
16031;SDS011;8120;48.308;8.914;2022-12-16T14:25:13;13.10;;;7.80;;
16031;SDS011;8120;48.308;8.914;2022-12-16T14:28:00;12.67;;;7.20;;
16031;SDS011;8120;48.308;8.914;2022-12-16T14:31:00;11.87;;;7.20;;
16031;SDS011;8120;48.308;8.914;2022-12-16T14:33:50;14.00;;;8.47;;
16031;SDS011;8120;48.308;8.914;2022-12-16T14:36:37;12.60;;;7.83;;
16031;SDS011;8120;48.308;8.914;2022-12-16T14:39:22;12.13;;;7.60;;
16031;SDS011;8120;48.308;8.914;2022-12-16T14:42:16;10.87;;;7.20;;
16031;SDS011;8120;48.308;8.914;2022-12-16T14:45:14;12.47;;;7.53;;
16031;SDS011;8120;48.308;8.914;2022-12-16T14:48:12;11.43;;;6.57;;
16031;SDS011;8120;48.308;8.914;2022-12-16T14:51:13;10.93;;;7.13;;
16031;SDS011;8120;48.308;8.914;2022-12-16T14:54:21;12.10;;;6.83;;
16031;SDS011;8120;48.308;8.914;2022-12-16T14:57:12;9.43;;;5.87;;
16031;SDS011;8120;48.308;8.914;2022-12-16T15:00:03;11.57;;;6.80;;
16031;SDS011;8120;48.308;8.914;2022-12-16T15:02:56;10.97;;;6.20;;
16031;SDS011;8120;48.308;8.914;2022-12-16T15:05:44;11.00;;;6.67;;
16031;SDS011;8120;48.308;8.914;2022-12-16T15:08:31;11.90;;;7.23;;
16031;SDS011;8120;48.308;8.914;2022-12-16T15:11:31;12.43;;;6.43;;
16031;SDS011;8120;48.308;8.914;2022-12-16T15:14:18;11.53;;;6.10;;
16031;SDS011;8120;48.308;8.914;2022-12-16T15:17:15;9.93;;;6.23;;
16031;SDS011;8120;48.308;8.914;2022-12-16T15:20:03;11.40;;;7.43;;
16031;SDS011;8120;48.308;8.914;2022-12-16T15:22:50;11.33;;;6.53;;
16031;SDS011;8120;48.308;8.914;2022-12-16T15:25:36;10.40;;;6.30;;
16031;SDS011;8120;48.308;8.914;2022-12-16T15:28:35;10.60;;;6.53;;
16031;SDS011;8120;48.308;8.914;2022-12-16T15:31:23;13.57;;;7.77;;
16031;SDS011;8120;48.308;8.914;2022-12-16T15:34:22;10.50;;;6.83;;
16031;SDS011;8120;48.308;8.914;2022-12-16T15:37:14;11.10;;;6.70;;
16031;SDS011;8120;48.308;8.914;2022-12-16T15:40:00;13.27;;;7.30;;
16031;SDS011;8120;48.308;8.914;2022-12-16T15:42:48;14.57;;;8.03;;
16031;SDS011;8120;48.308;8.914;2022-12-16T15:45:35;14.27;;;8.27;;
16031;SDS011;8120;48.308;8.914;2022-12-16T15:48:23;13.57;;;7.50;;
16031;SDS011;8120;48.308;8.914;2022-12-16T15:51:22;12.87;;;7.53;;
16031;SDS011;8120;48.308;8.914;2022-12-16T15:54:16;11.70;;;7.03;;
16031;SDS011;8120;48.308;8.914;2022-12-16T16:00:18;13.63;;;7.30;;
16031;SDS011;8120;48.308;8.914;2022-12-16T16:03:16;13.87;;;7.40;;
16031;SDS011;8120;48.308;8.914;2022-12-16T16:06:08;13.87;;;7.00;;
16031;SDS011;8120;48.308;8.914;2022-12-16T16:09:00;11.70;;;6.73;;
16031;SDS011;8120;48.308;8.914;2022-12-16T16:11:55;16.37;;;7.07;;
16031;SDS011;8120;48.308;8.914;2022-12-16T16:14:40;11.60;;;6.67;;
16031;SDS011;8120;48.308;8.914;2022-12-16T16:17:26;10.23;;;6.93;;
16031;SDS011;8120;48.308;8.914;2022-12-16T16:20:12;10.77;;;6.70;;
16031;SDS011;8120;48.308;8.914;2022-12-16T16:22:59;10.00;;;6.07;;
16031;SDS011;8120;48.308;8.914;2022-12-16T16:25:46;13.33;;;6.93;;
16031;SDS011;8120;48.308;8.914;2022-12-16T16:28:32;10.20;;;6.07;;
16031;SDS011;8120;48.308;8.914;2022-12-16T16:31:18;10.53;;;6.70;;
16031;SDS011;8120;48.308;8.914;2022-12-16T16:34:04;15.03;;;7.73;;
16031;SDS011;8120;48.308;8.914;2022-12-16T16:36:51;11.77;;;6.77;;
16031;SDS011;8120;48.308;8.914;2022-12-16T16:39:38;11.80;;;7.30;;
16031;SDS011;8120;48.308;8.914;2022-12-16T16:42:25;13.37;;;7.60;;
16031;SDS011;8120;48.308;8.914;2022-12-16T16:45:11;12.80;;;7.43;;